Time;durP1;ratioP1;P1;durP2;ratioP2;P2;SDS_P1;SDS_P2;PMS_P1;PMS_P2;Temp;Humidity;BMP_temperature;BMP_pressure;BME280_temperature;BME280_humidity;BME280_pressure;Samples;Min_cycle;Max_cycle;Signal;HPM_P1;HPM_P2
2022/01/31 00:00:37;;;;;;;49.38;6.30;;;;;;;;;;6184185;23;20016;-93
2022/01/31 00:03:04;;;;;;;40.58;6.03;;;;;;;;;;6183512;23;20013;-94
2022/01/31 00:05:31;;;;;;;47.50;5.57;;;;;;;;;;6184070;23;20010;-94
2022/01/31 00:08:24;;;;;;;49.83;7.22;;;;;;;;;;6183655;23;20028;-95
2022/01/31 00:10:51;;;;;;;39.05;6.75;;;;;;;;;;6183422;23;20010;-95
2022/01/31 00:13:24;;;;;;;54.88;7.30;;;;;;;;;;6183493;23;20084;-95
2022/01/31 00:16:32;;;;;;;40.97;6.55;;;;;;;;;;6183631;23;20016;-95
2022/01/31 00:18:59;;;;;;;43.55;7.50;;;;;;;;;;6183618;23;20013;-94
2022/01/31 00:21:27;;;;;;;49.47;6.57;;;;;;;;;;6183743;23;20009;-95
2022/01/31 00:30:24;;;;;;;51.88;6.72;;;;;;;;;;6184268;23;20029;-94
2022/01/31 00:32:52;;;;;;;46.25;7.53;;;;;;;;;;6183800;23;20033;-94
2022/01/31 00:35:21;;;;;;;42.83;6.25;;;;;;;;;;6183823;23;20065;-95
2022/01/31 00:37:48;;;;;;;44.75;6.75;;;;;;;;;;6183601;23;20014;-94
2022/01/31 00:40:18;;;;;;;49.20;6.28;;;;;;;;;;6183667;23;20012;-92
2022/01/31 00:49:35;;;;;;;41.42;6.70;;;;;;;;;;6213927;23;19935;-93
2022/01/31 00:52:02;;;;;;;47.95;6.25;;;;;;;;;;6213348;23;20032;-95
2022/01/31 00:54:29;;;;;;;41.00;6.47;;;;;;;;;;6213388;23;20013;-95
2022/01/31 01:04:15;;;;;;;46.88;6.72;;;;;;;;;;6214189;23;20000;-94
2022/01/31 01:06:42;;;;;;;38.65;6.40;;;;;;;;;;6213339;23;20032;-93
2022/01/31 01:09:09;;;;;;;43.28;6.38;;;;;;;;;;6213574;23;20065;-94
2022/01/31 01:15:01;;;;;;;46.35;6.97;;;;;;;;;;6214098;23;20000;-94
2022/01/31 01:17:28;;;;;;;42.63;5.53;;;;;;;;;;6213260;23;20009;-95
2022/01/31 01:19:55;;;;;;;50.65;6.32;;;;;;;;;;6213214;23;20029;-93
2022/01/31 01:26:00;;;;;;;45.22;5.97;;;;;;;;;;6213497;23;20103;-94
2022/01/31 01:28:30;;;;;;;41.92;5.93;;;;;;;;;;6212542;23;20033;-93
2022/01/31 01:31:10;;;;;;;41.25;6.15;;;;;;;;;;6212630;23;20049;-93
2022/01/31 01:34:01;;;;;;;42.08;5.97;;;;;;;;;;6212371;23;20068;-94
2022/01/31 01:36:42;;;;;;;34.17;5.90;;;;;;;;;;6212908;23;20016;-94
2022/01/31 01:39:22;;;;;;;43.38;6.80;;;;;;;;;;6211244;23;20010;-93
2022/01/31 01:41:49;;;;;;;43.30;6.00;;;;;;;;;;6216220;22;20009;-93
2022/01/31 01:44:16;;;;;;;36.70;7.32;;;;;;;;;;6218517;22;20004;-94
2022/01/31 02:06:58;;;;;;;36.65;6.28;;;;;;;;;;6249919;22;20039;-93
2022/01/31 02:09:31;;;;;;;30.45;6.18;;;;;;;;;;6250561;22;20004;-94
2022/01/31 02:11:59;;;;;;;39.65;5.80;;;;;;;;;;6249899;22;20012;-94
2022/01/31 02:14:28;;;;;;;44.63;7.07;;;;;;;;;;6249923;22;20008;-94
2022/01/31 02:17:30;;;;;;;29.75;6.57;;;;;;;;;;6249881;22;20030;-94
2022/01/31 02:19:57;;;;;;;35.70;6.70;;;;;;;;;;6249688;22;20028;-93
2022/01/31 02:22:24;;;;;;;34.97;5.70;;;;;;;;;;6249800;22;20023;-94
2022/01/31 02:25:10;;;;;;;38.65;6.20;;;;;;;;;;6250574;22;20036;-94
2022/01/31 02:27:37;;;;;;;30.98;6.07;;;;;;;;;;6250011;22;20012;-94
2022/01/31 02:30:06;;;;;;;29.45;6.55;;;;;;;;;;6250561;22;20004;-93
2022/01/31 02:32:54;;;;;;;35.13;6.47;;;;;;;;;;6250664;22;20012;-93
2022/01/31 02:35:24;;;;;;;34.25;6.15;;;;;;;;;;6249768;22;20008;-94
2022/01/31 02:37:51;;;;;;;43.25;6.72;;;;;;;;;;6249595;22;20016;-93
2022/01/31 02:40:26;;;;;;;32.70;5.68;;;;;;;;;;6249757;22;20008;-93
2022/01/31 02:42:55;;;;;;;33.05;6.35;;;;;;;;;;6249373;22;20008;-93
2022/01/31 02:45:22;;;;;;;23.67;4.70;;;;;;;;;;6249158;22;20019;-93
2022/01/31 02:48:24;;;;;;;24.80;4.75;;;;;;;;;;6247947;22;20008;-93
2022/01/31 02:50:52;;;;;;;35.75;5.70;;;;;;;;;;6247397;23;20008;-93
2022/01/31 02:53:26;;;;;;;41.65;7.40;;;;;;;;;;6247462;22;20046;-93
2022/01/31 02:56:17;;;;;;;31.52;6.07;;;;;;;;;;6249501;23;20012;-93
2022/01/31 02:58:44;;;;;;;46.13;6.07;;;;;;;;;;6249239;22;20043;-93
2022/01/31 03:01:11;;;;;;;29.05;5.22;;;;;;;;;;6249404;22;20010;-94
2022/01/31 03:03:48;;;;;;;38.60;6.18;;;;;;;;;;6249470;22;20039;-92
2022/01/31 03:06:16;;;;;;;42.15;5.95;;;;;;;;;;6248746;22;20038;-93
2022/01/31 03:08:43;;;;;;;30.65;5.57;;;;;;;;;;6248939;22;20046;-93
2022/01/31 03:14:54;;;;;;;36.35;6.43;;;;;;;;;;6275224;22;20035;-93
2022/01/31 03:17:23;;;;;;;41.15;6.00;;;;;;;;;;6248071;22;20051;-94
2022/01/31 03:19:53;;;;;;;35.78;6.18;;;;;;;;;;6248576;22;20106;-93
2022/01/31 03:29:17;;;;;;;40.17;7.28;;;;;;;;;;6273828;22;20043;-93
2022/01/31 03:31:44;;;;;;;46.25;9.60;;;;;;;;;;6248617;22;20083;-93
2022/01/31 03:34:10;;;;;;;34.88;6.53;;;;;;;;;;6249048;22;20026;-93
2022/01/31 03:37:12;;;;;;;36.95;7.05;;;;;;;;;;6248377;22;20051;-93
2022/01/31 03:39:44;;;;;;;36.92;6.63;;;;;;;;;;6248749;22;20023;-93
2022/01/31 03:42:16;;;;;;;32.95;7.55;;;;;;;;;;6247863;23;20046;-93
2022/01/31 03:45:02;;;;;;;36.65;7.97;;;;;;;;;;6246741;22;20079;-93
2022/01/31 03:47:33;;;;;;;37.72;7.97;;;;;;;;;;6249743;22;20020;-94
2022/01/31 03:50:14;;;;;;;33.80;8.63;;;;;;;;;;6248257;22;20020;-93
2022/01/31 03:53:11;;;;;;;43.80;9.90;;;;;;;;;;6162248;23;20029;-94
2022/01/31 03:55:51;;;;;;;42.20;9.68;;;;;;;;;;6161237;23;20006;-94
2022/01/31 03:58:31;;;;;;;36.90;9.65;;;;;;;;;;6160449;23;20030;-93
2022/01/31 04:04:47;;;;;;;32.65;10.48;;;;;;;;;;6183369;23;19996;-94
2022/01/31 04:07:28;;;;;;;44.50;12.73;;;;;;;;;;6159988;23;20017;-93
2022/01/31 04:10:09;;;;;;;44.05;13.00;;;;;;;;;;6160223;23;20010;-94
2022/01/31 04:16:17;;;;;;;43.92;12.98;;;;;;;;;;6183090;23;20000;-95
2022/01/31 04:18:59;;;;;;;34.38;13.18;;;;;;;;;;6160056;23;20029;-95
2022/01/31 04:21:40;;;;;;;47.78;13.68;;;;;;;;;;6160111;23;20076;-94
2022/01/31 04:24:33;;;;;;;46.65;13.93;;;;;;;;;;6102551;23;20013;-94
2022/01/31 04:27:19;;;;;;;43.63;14.27;;;;;;;;;;6101732;23;20022;-94
2022/01/31 17:39:43;;;;;;;43.63;20.23;;;;;;;;;;6162668;23;20005;-94
2022/01/31 17:42:25;;;;;;;42.88;19.67;;;;;;;;;;6243730;22;20012;-93
2022/01/31 17:53:44;;;;;;;41.70;19.53;;;;;;;;;;6232276;22;20008;-95
2022/01/31 17:56:26;;;;;;;40.40;20.73;;;;;;;;;;6227792;22;20028;-91
2022/01/31 17:59:24;;;;;;;63.50;22.77;;;;;;;;;;6190181;23;20013;-94
2022/01/31 18:08:46;;;;;;;52.08;21.02;;;;;;;;;;6211125;23;20025;-93
2022/01/31 18:11:26;;;;;;;45.78;19.40;;;;;;;;;;6188981;23;20025;-93
2022/01/31 18:17:32;;;;;;;42.08;20.40;;;;;;;;;;6212471;23;20016;-93
2022/01/31 18:20:14;;;;;;;44.22;20.52;;;;;;;;;;6210591;23;20039;-94
2022/01/31 18:23:11;;;;;;;44.15;19.85;;;;;;;;;;6210997;23;20005;-94
2022/01/31 21:23:10;;;;;;;38.75;17.45;;;;;;;;;;6197898;23;20032;-94
2022/01/31 21:28:37;;;;;;;45.72;17.60;;;;;;;;;;6193562;23;20025;-93
2022/01/31 21:58:21;;;;;;;51.60;16.35;;;;;;;;;;6175432;23;20022;-92
2022/01/31 23:17:44;;;;;;;30.70;13.18;;;;;;;;;;6224684;22;20008;-93
